Time;durP1;ratioP1;P1;durP2;ratioP2;P2;SDS_P1;SDS_P2;PMS_P1;PMS_P2;Temp;Humidity;BMP_temperature;BMP_pressure;BME280_temperature;BME280_humidity;BME280_pressure;Samples;Min_cycle;Max_cycle;Signal;HPM_P1;HPM_P2
2021/11/19 00:00:57;;;;;;;15.27;4.95;;;;;;;17.60;48.22;102743.81;4976167;28;20026;-61
2021/11/19 00:03:23;;;;;;;15.02;6.45;;;;;;;17.59;48.15;102739.41;4976677;28;20029;-61
2021/11/19 00:05:49;;;;;;;11.73;4.93;;;;;;;17.56;49.00;102743.19;4976743;28;20031;-62
2021/11/19 00:08:16;;;;;;;10.52;4.60;;;;;;;17.56;48.68;102745.06;4977035;28;20027;-61
2021/11/19 00:10:42;;;;;;;11.80;4.97;;;;;;;17.56;48.38;102736.94;4991362;28;20557;-61
2021/11/19 00:13:08;;;;;;;16.33;5.50;;;;;;;17.60;48.99;102738.38;4975816;28;20030;-61
2021/11/19 00:15:34;;;;;;;11.98;5.15;;;;;;;17.59;48.43;102723.97;4976590;28;20058;-61
2021/11/19 00:18:00;;;;;;;17.23;5.15;;;;;;;17.62;49.31;102731.84;4975049;28;20423;-61
2021/11/19 00:20:28;;;;;;;14.25;6.32;;;;;;;17.61;48.31;102730.16;4976555;28;20018;-61
2021/11/19 00:22:58;;;;;;;12.48;4.93;;;;;;;17.58;48.69;102714.16;4976523;28;20023;-61
2021/11/19 00:25:25;;;;;;;18.00;5.60;;;;;;;17.58;48.99;102719.56;4991215;28;20030;-61
2021/11/19 00:27:50;;;;;;;13.32;5.13;;;;;;;17.57;48.63;102711.53;4976324;28;20037;-61
2021/11/19 00:30:18;;;;;;;16.98;6.35;;;;;;;17.62;48.61;102714.72;4991590;28;20117;-61
2021/11/19 00:32:43;;;;;;;9.05;5.07;;;;;;;17.60;48.92;102712.16;4991375;28;20538;-61
2021/11/19 00:35:10;;;;;;;17.08;5.60;;;;;;;17.60;49.17;102709.44;4974920;28;20026;-61
2021/11/19 00:37:37;;;;;;;10.93;4.70;;;;;;;17.60;49.11;102711.28;4976131;28;20030;-61
2021/11/19 00:40:06;;;;;;;13.98;5.35;;;;;;;17.60;49.94;102705.88;4990929;28;20054;-61
2021/11/19 00:42:31;;;;;;;20.55;5.65;;;;;;;17.60;48.41;102712.16;4990970;28;20027;-61
2021/11/19 00:44:57;;;;;;;10.90;4.93;;;;;;;17.64;49.59;102721.75;4974715;28;20027;-61
2021/11/19 00:47:22;;;;;;;9.73;5.55;;;;;;;17.61;49.03;102711.19;4991066;28;20086;-61
2021/11/19 00:49:48;;;;;;;13.18;5.50;;;;;;;17.62;48.51;102714.72;4974688;28;20034;-62
2021/11/19 00:52:15;;;;;;;14.70;5.53;;;;;;;17.65;49.20;102723.47;4975821;28;20034;-61
2021/11/19 00:54:41;;;;;;;15.02;5.75;;;;;;;17.65;50.08;102734.31;4990968;28;20150;-61
2021/11/19 00:57:10;;;;;;;12.98;5.50;;;;;;;17.64;49.19;102724.47;4990853;28;20062;-60
2021/11/19 00:59:37;;;;;;;20.90;6.57;;;;;;;17.62;48.54;102721.00;4974678;28;20472;-61
2021/11/19 01:02:09;;;;;;;11.60;6.47;;;;;;;17.61;48.88;102715.72;4975830;28;20026;-61
2021/11/19 01:04:36;;;;;;;17.90;5.28;;;;;;;17.62;48.92;102725.56;4975781;28;20023;-61
2021/11/19 01:07:02;;;;;;;12.98;6.35;;;;;;;17.58;49.77;102711.44;4975532;28;20499;-61
2021/11/19 01:09:32;;;;;;;15.90;6.53;;;;;;;17.63;49.49;102714.63;4975402;28;20076;-63
2021/11/19 01:11:59;;;;;;;14.10;5.85;;;;;;;17.63;49.31;102714.63;4989964;28;20030;-60
2021/11/19 01:14:33;;;;;;;12.48;6.82;;;;;;;17.61;49.68;102713.88;4975397;28;20074;-60
2021/11/19 01:17:05;;;;;;;18.17;6.45;;;;;;;17.62;49.88;102704.75;4974267;28;20105;-60
2021/11/19 01:19:36;;;;;;;13.38;5.47;;;;;;;17.61;48.81;102711.19;4975431;28;20048;-61
2021/11/19 01:22:08;;;;;;;16.45;5.55;;;;;;;17.59;49.67;102713.13;4974160;28;20105;-62
2021/11/19 01:24:35;;;;;;;21.48;6.97;;;;;;;17.62;49.72;102720.16;4975530;28;20022;-62
2021/11/19 01:27:01;;;;;;;17.88;7.18;;;;;;;17.60;49.34;102725.72;4990408;28;20502;-61
2021/11/19 01:29:26;;;;;;;14.50;6.25;;;;;;;17.59;50.46;102720.44;4975395;28;20019;-61
2021/11/19 01:32:01;;;;;;;16.55;6.72;;;;;;;17.64;49.94;102724.47;4975012;28;20026;-61
2021/11/19 01:34:27;;;;;;;17.88;6.38;;;;;;;17.64;49.54;102720.91;4975445;28;20046;-61
2021/11/19 01:36:53;;;;;;;13.98;5.53;;;;;;;17.64;49.54;102724.47;4975364;28;20023;-61
2021/11/19 01:39:21;;;;;;;14.73;6.18;;;;;;;17.63;50.60;102728.16;4975399;28;20034;-62
2021/11/19 01:48:38;;;;;;;12.85;6.03;;;;;;;17.53;50.11;102713.63;4975650;28;20037;-61
2021/11/19 01:51:10;;;;;;;17.98;6.75;;;;;;;17.56;49.65;102721.53;4975069;28;20490;-61
2021/11/19 01:53:42;;;;;;;15.05;7.30;;;;;;;17.49;50.13;102704.03;4975131;28;20467;-61
2021/11/19 01:56:15;;;;;;;19.90;6.95;;;;;;;17.56;50.93;102715.25;4973764;28;20121;-61
2021/11/19 01:58:48;;;;;;;17.02;6.18;;;;;;;17.59;49.89;102718.56;4973910;28;20030;-61
2021/11/19 02:01:30;;;;;;;14.27;6.00;;;;;;;17.57;50.11;102723.25;4974115;28;20041;-61
2021/11/19 02:04:02;;;;;;;17.73;5.90;;;;;;;17.57;49.89;102719.66;4975095;28;20027;-61
2021/11/19 02:06:33;;;;;;;14.52;6.13;;;;;;;17.52;50.60;102721.88;4990469;28;20026;-62
2021/11/19 02:08:59;;;;;;;17.58;5.93;;;;;;;17.54;49.38;102730.75;4974004;28;20031;-61
2021/11/19 02:11:33;;;;;;;19.80;7.00;;;;;;;17.53;49.57;102729.03;4973800;28;20381;-61
2021/11/19 02:14:10;;;;;;;14.25;6.53;;;;;;;17.52;51.05;102730.88;4990008;28;20530;-61
2021/11/19 02:16:56;;;;;;;17.52;6.82;;;;;;;17.52;50.48;102730.88;4973865;28;20067;-61
2021/11/19 02:19:27;;;;;;;14.48;6.38;;;;;;;17.53;51.00;102729.91;4974906;28;20049;-62
2021/11/19 02:22:02;;;;;;;17.50;7.45;;;;;;;17.54;50.95;102728.06;4989263;28;20427;-62
2021/11/19 02:24:38;;;;;;;16.08;6.50;;;;;;;17.54;50.25;102734.34;4974799;28;20436;-61
2021/11/19 02:27:39;;;;;;;13.05;6.72;;;;;;;17.52;50.55;102730.00;4973588;28;20113;-61
2021/11/19 02:30:13;;;;;;;11.27;5.88;;;;;;;17.53;50.10;102732.59;4977079;28;20379;-61
2021/11/19 02:32:52;;;;;;;14.23;7.10;;;;;;;17.54;50.68;102733.47;4978330;28;20065;-61
2021/11/19 02:35:25;;;;;;;13.95;6.38;;;;;;;17.54;51.21;102734.34;4976775;28;20464;-61
2021/11/19 02:37:54;;;;;;;15.68;6.70;;;;;;;17.52;50.09;102728.16;4976802;28;20023;-61
2021/11/19 02:40:25;;;;;;;19.63;7.57;;;;;;;17.48;51.16;102723.97;4976914;28;20070;-62
2021/11/19 02:42:58;;;;;;;15.88;6.85;;;;;;;17.52;51.33;102725.47;4977823;28;20046;-61
2021/11/19 02:45:31;;;;;;;15.88;5.68;;;;;;;17.51;51.42;102731.84;4977779;28;20115;-61
2021/11/19 02:47:57;;;;;;;18.25;7.63;;;;;;;17.51;50.68;102728.28;4978287;28;20026;-62
2021/11/19 02:50:26;;;;;;;15.63;7.05;;;;;;;17.51;50.55;102729.13;4977784;28;20030;-61
2021/11/19 02:52:52;;;;;;;18.85;7.10;;;;;;;17.53;50.69;102710.94;4992513;28;20023;-61
2021/11/19 02:55:21;;;;;;;17.15;7.05;;;;;;;17.54;50.33;102711.78;4977354;28;20031;-61
2021/11/19 02:57:48;;;;;;;18.25;7.53;;;;;;;17.57;50.36;102717.81;4976763;28;20101;-61
2021/11/19 03:00:27;;;;;;;21.80;7.90;;;;;;;17.57;50.57;102717.81;4977521;28;20031;-61
2021/11/19 03:02:53;;;;;;;14.02;6.68;;;;;;;17.58;49.68;102713.28;4977419;28;20023;-61
2021/11/19 03:05:20;;;;;;;16.08;6.93;;;;;;;17.54;50.26;102707.25;4977481;28;20121;-62
2021/11/19 03:07:46;;;;;;;20.13;7.90;;;;;;;17.52;50.90;102701.06;4992249;28;20018;-61
2021/11/19 03:10:34;;;;;;;18.55;6.85;;;;;;;17.52;49.87;102711.03;4977187;28;20026;-61
2021/11/19 03:13:01;;;;;;;21.88;7.70;;;;;;;17.47;50.07;102711.44;4992235;28;20122;-61
2021/11/19 03:15:30;;;;;;;14.68;6.97;;;;;;;17.47;51.30;102701.44;4975875;28;20034;-62
2021/11/19 03:17:55;;;;;;;18.27;7.90;;;;;;;17.46;50.23;102707.00;4977186;28;20057;-61
2021/11/19 03:20:23;;;;;;;19.65;6.45;;;;;;;17.46;50.50;102716.00;4976155;28;20042;-62
2021/11/19 03:22:49;;;;;;;13.52;7.03;;;;;;;17.42;50.63;102716.34;4992473;28;20432;-63
2021/11/19 03:25:17;;;;;;;17.45;7.38;;;;;;;17.42;51.02;102719.06;4992184;28;20023;-62
2021/11/19 03:27:43;;;;;;;18.75;8.38;;;;;;;17.37;51.04;102705.03;4975852;28;20022;-62
2021/11/19 03:30:11;;;;;;;15.70;7.65;;;;;;;17.47;51.76;102719.56;4976128;28;20061;-62
2021/11/19 03:32:37;;;;;;;18.45;6.95;;;;;;;17.44;50.68;102712.56;4976959;28;20030;-61
2021/11/19 03:35:06;;;;;;;18.45;8.68;;;;;;;17.48;51.43;102710.44;4975677;28;20030;-62
2021/11/19 03:37:31;;;;;;;12.25;6.90;;;;;;;17.43;49.96;102704.53;4976114;28;20054;-61
2021/11/19 03:39:57;;;;;;;17.10;8.20;;;;;;;17.48;50.83;102713.13;4975823;28;20069;-62
2021/11/19 03:42:22;;;;;;;14.88;7.43;;;;;;;17.44;51.43;102703.56;4991454;28;20035;-61
2021/11/19 03:48:10;;;;;;;18.85;7.75;;;;;;;17.45;51.36;102710.69;4977120;28;20130;-61
2021/11/19 03:50:46;;;;;;;18.20;8.23;;;;;;;17.43;50.13;102704.53;4975644;28;20126;-61
2021/11/19 03:53:13;;;;;;;17.35;8.15;;;;;;;17.39;51.48;102694.97;4991813;28;20057;-61
2021/11/19 03:55:43;;;;;;;16.48;7.18;;;;;;;17.40;51.26;102700.25;4976501;28;20031;-61
2021/11/19 03:58:09;;;;;;;16.58;7.10;;;;;;;17.39;51.22;102703.91;4976262;28;20093;-62
2021/11/19 04:00:38;;;;;;;16.73;8.35;;;;;;;17.38;51.88;102701.34;4975050;28;20110;-62
2021/11/19 04:03:04;;;;;;;19.92;7.75;;;;;;;17.37;51.24;102702.34;4975051;28;20030;-61
2021/11/19 04:05:31;;;;;;;22.83;8.07;;;;;;;17.37;51.49;102707.75;4975121;28;20035;-61
2021/11/19 04:07:56;;;;;;;21.92;7.82;;;;;;;17.36;50.55;102690.63;4976080;28;20034;-61
2021/11/19 04:10:22;;;;;;;19.58;8.15;;;;;;;17.43;51.36;102705.41;4976242;28;20472;-61
2021/11/19 04:12:47;;;;;;;14.60;7.70;;;;;;;17.44;51.42;102709.84;4991160;28;20104;-62
2021/11/19 04:15:19;;;;;;;16.67;7.75;;;;;;;17.43;51.65;102704.53;4976112;28;20030;-61
2021/11/19 04:17:45;;;;;;;17.67;8.15;;;;;;;17.48;50.56;102710.44;4975775;28;20082;-61
2021/11/19 04:20:11;;;;;;;15.52;8.07;;;;;;;17.49;50.53;102706.75;4974487;28;20058;-61
2021/11/19 04:22:37;;;;;;;17.85;8.32;;;;;;;17.50;51.75;102705.75;4974649;28;20039;-62
2021/11/19 04:25:05;;;;;;;12.77;7.70;;;;;;;17.53;51.53;102704.66;4974782;28;20023;-61
2021/11/19 04:27:31;;;;;;;12.88;9.00;;;;;;;17.53;51.03;102704.66;4974818;28;20033;-62
2021/11/19 04:29:57;;;;;;;17.75;7.68;;;;;;;17.51;51.12;102707.47;4974836;28;20027;-62
2021/11/19 04:32:22;;;;;;;22.55;8.90;;;;;;;17.53;50.56;102705.50;4974500;28;20033;-61
2021/11/19 04:34:50;;;;;;;21.67;8.05;;;;;;;17.57;51.60;102712.41;4975868;28;20035;-61
2021/11/19 04:37:15;;;;;;;14.23;7.80;;;;;;;17.57;51.54;102711.53;4976443;28;20029;-62
2021/11/19 04:39:41;;;;;;;14.48;7.40;;;;;;;17.56;51.10;102705.25;4975998;28;20031;-62
2021/11/19 04:42:07;;;;;;;18.50;7.47;;;;;;;17.57;51.23;102706.13;4974484;28;20031;-61
2021/11/19 04:44:34;;;;;;;18.45;7.75;;;;;;;17.53;52.27;102705.50;4974459;28;20396;-61
2021/11/19 04:47:00;;;;;;;13.80;8.43;;;;;;;17.48;51.77;102696.88;4990819;28;20031;-62
2021/11/19 04:49:25;;;;;;;20.00;7.88;;;;;;;17.51;51.51;102702.03;4974485;28;20062;-61
2021/11/19 04:51:51;;;;;;;17.50;9.50;;;;;;;17.50;52.01;102711.19;4973840;28;20034;-62
2021/11/19 04:54:17;;;;;;;18.88;7.70;;;;;;;17.46;51.47;102705.16;4991566;28;20026;-62
2021/11/19 04:56:44;;;;;;;19.88;7.95;;;;;;;17.50;51.74;102704.91;4975861;28;20026;-62
2021/11/19 04:59:11;;;;;;;18.00;8.50;;;;;;;17.47;51.85;102706.84;4974939;28;20026;-61
2021/11/19 05:01:42;;;;;;;16.20;8.07;;;;;;;17.53;52.00;102715.47;4975226;28;20075;-62
2021/11/19 05:04:08;;;;;;;15.63;9.35;;;;;;;17.52;50.84;102714.63;4975921;28;20027;-62
2021/11/19 05:06:34;;;;;;;19.60;8.35;;;;;;;17.54;51.57;102707.25;4992515;28;20031;-62
2021/11/19 05:09:00;;;;;;;12.70;7.03;;;;;;;17.57;51.45;102706.13;4974720;28;20037;-61
2021/11/19 05:11:31;;;;;;;13.90;8.07;;;;;;;17.51;51.61;102704.75;4976340;28;20044;-62
2021/11/19 05:13:58;;;;;;;19.73;8.45;;;;;;;17.57;51.64;102722.38;4974660;28;20034;-61
2021/11/19 05:16:23;;;;;;;17.63;8.85;;;;;;;17.58;52.30;102716.84;4990338;28;20141;-61
2021/11/19 05:18:49;;;;;;;18.40;7.85;;;;;;;17.56;50.86;102713.38;4975984;28;20043;-61
2021/11/19 05:21:17;;;;;;;16.77;8.95;;;;;;;17.59;51.09;102712.28;4976404;28;20026;-62
2021/11/19 05:23:44;;;;;;;21.15;8.40;;;;;;;17.58;52.17;102711.44;4991311;28;20050;-63
2021/11/19 05:26:09;;;;;;;17.20;8.18;;;;;;;17.56;51.34;102710.69;4991015;28;20089;-62
2021/11/19 05:28:35;;;;;;;16.83;7.85;;;;;;;17.55;51.66;102713.53;4976157;28;20034;-62
2021/11/19 05:31:01;;;;;;;14.07;7.93;;;;;;;17.50;51.38;102711.19;4974432;28;20443;-62
2021/11/19 05:33:29;;;;;;;16.00;7.60;;;;;;;17.52;51.54;102713.75;4974430;28;20034;-61
2021/11/19 05:35:54;;;;;;;19.45;9.30;;;;;;;17.48;51.45;102705.00;4974810;28;20023;-61
2021/11/19 05:38:21;;;;;;;16.90;8.35;;;;;;;17.47;52.33;102701.44;4975381;28;20372;-61
2021/11/19 05:40:47;;;;;;;15.90;7.65;;;;;;;17.51;52.58;102712.00;4974206;28;20400;-61
2021/11/19 05:43:13;;;;;;;18.52;9.05;;;;;;;17.48;52.45;102708.59;4973814;28;20027;-62
2021/11/19 05:45:39;;;;;;;16.70;8.55;;;;;;;17.47;52.32;102716.84;4989878;28;20022;-61
2021/11/19 05:48:07;;;;;;;15.52;8.10;;;;;;;17.47;52.64;102709.56;4990057;28;20034;-62
2021/11/19 05:50:34;;;;;;;18.60;8.45;;;;;;;17.48;51.89;102708.59;4973712;28;20468;-62
2021/11/19 05:53:02;;;;;;;16.52;7.93;;;;;;;17.50;51.91;102716.59;4989860;28;20026;-62
2021/11/19 05:55:30;;;;;;;13.85;7.22;;;;;;;17.48;52.27;102713.13;4974804;28;20038;-62
2021/11/19 05:57:55;;;;;;;17.55;8.85;;;;;;;17.51;52.05;102715.59;4989766;28;20035;-62
2021/11/19 06:00:32;;;;;;;16.73;7.93;;;;;;;17.51;52.69;102718.31;4989569;28;20077;-62
2021/11/19 06:02:58;;;;;;;19.27;8.50;;;;;;;17.52;51.47;102717.31;4989788;28;20101;-62
2021/11/19 06:05:23;;;;;;;19.13;8.88;;;;;;;17.54;52.12;102718.09;4977689;28;20022;-62
2021/11/19 06:07:48;;;;;;;15.85;7.80;;;;;;;17.55;51.70;102717.09;4978617;28;20086;-61
2021/11/19 06:10:17;;;;;;;18.98;8.15;;;;;;;17.55;53.09;102719.81;4978689;28;20464;-61
2021/11/19 06:12:49;;;;;;;15.95;9.45;;;;;;;17.52;52.26;102724.59;4993387;28;20037;-62
2021/11/19 06:15:28;;;;;;;17.45;8.65;;;;;;;17.54;51.95;102734.34;4976825;28;20030;-61
2021/11/19 06:17:59;;;;;;;17.02;7.95;;;;;;;17.55;52.17;102727.94;4977647;28;20070;-61
2021/11/19 06:20:36;;;;;;;17.63;8.05;;;;;;;17.56;52.88;102728.81;4993369;28;20504;-61
2021/11/19 06:23:05;;;;;;;16.92;8.05;;;;;;;17.54;52.00;102734.34;4976942;28;20047;-61
2021/11/19 06:25:32;;;;;;;15.85;8.07;;;;;;;17.57;52.43;102734.09;4978527;28;20419;-61
2021/11/19 06:28:00;;;;;;;17.02;7.50;;;;;;;17.54;51.96;102728.94;4993213;28;20200;-61
2021/11/19 06:30:26;;;;;;;14.07;8.05;;;;;;;17.59;51.64;102732.09;4978463;28;20054;-61
2021/11/19 06:32:52;;;;;;;18.02;8.55;;;;;;;17.62;52.14;102736.41;4976900;28;20539;-61
2021/11/19 06:35:18;;;;;;;18.13;8.48;;;;;;;17.62;51.56;102737.28;4977016;28;20217;-61
2021/11/19 06:37:44;;;;;;;23.52;9.05;;;;;;;17.64;52.83;102740.75;4992929;28;20125;-61
2021/11/19 06:40:13;;;;;;;14.50;7.93;;;;;;;17.64;52.27;102732.59;4992678;28;20085;-62
2021/11/19 06:42:39;;;;;;;15.32;7.43;;;;;;;17.64;51.67;102735.31;4977975;28;20537;-61
2021/11/19 06:45:05;;;;;;;18.45;8.55;;;;;;;17.66;51.71;102738.75;4992607;28;20110;-61
2021/11/19 06:47:31;;;;;;;17.83;7.72;;;;;;;17.65;51.48;102742.44;4978169;28;20034;-61
2021/11/19 06:49:57;;;;;;;20.33;7.95;;;;;;;17.65;52.25;102747.84;4977802;28;20476;-61
2021/11/19 06:52:23;;;;;;;15.38;7.57;;;;;;;17.67;52.25;102745.88;4976501;28;20030;-61
2021/11/19 06:54:48;;;;;;;18.67;8.07;;;;;;;17.65;52.41;102747.84;4976364;28;20380;-61
2021/11/19 06:57:14;;;;;;;19.23;9.25;;;;;;;17.68;53.07;102746.75;4976555;28;20031;-61
2021/11/19 06:59:41;;;;;;;14.27;7.78;;;;;;;17.66;52.09;102755.00;4976289;28;20034;-62
2021/11/19 07:02:07;;;;;;;16.63;8.70;;;;;;;17.61;52.47;102751.84;4992822;28;20093;-62
2021/11/19 07:04:33;;;;;;;15.23;8.77;;;;;;;17.66;52.54;102757.72;4977652;28;20062;-62
2021/11/19 07:06:59;;;;;;;17.83;8.88;;;;;;;17.62;52.67;102753.53;4977594;28;20114;-62
2021/11/19 07:09:26;;;;;;;17.33;9.90;;;;;;;17.62;52.41;102748.13;4992351;28;20047;-62
2021/11/19 07:11:51;;;;;;;16.75;8.43;;;;;;;17.65;52.80;102764.13;4976549;28;20027;-62
2021/11/19 07:14:17;;;;;;;16.33;8.10;;;;;;;17.65;52.20;102757.84;4976114;28;20050;-62
2021/11/19 07:16:42;;;;;;;18.13;8.63;;;;;;;17.64;52.56;102775.97;4977258;28;20081;-62
2021/11/19 07:19:09;;;;;;;20.38;8.65;;;;;;;17.67;52.46;102775.69;4977222;28;20055;-62
2021/11/19 07:21:35;;;;;;;19.35;9.25;;;;;;;17.67;52.66;102778.41;4977185;28;20031;-63
2021/11/19 07:24:01;;;;;;;16.23;8.48;;;;;;;17.67;52.02;102783.81;4977317;28;20101;-62
2021/11/19 07:26:29;;;;;;;22.63;8.68;;;;;;;17.68;52.17;102774.72;4992097;28;20411;-62
2021/11/19 07:28:56;;;;;;;17.02;8.35;;;;;;;17.71;53.07;102774.47;4977033;28;20027;-62
2021/11/19 07:31:21;;;;;;;16.15;7.82;;;;;;;17.72;52.83;102781.63;4992197;28;20022;-61
2021/11/19 07:33:47;;;;;;;16.45;8.18;;;;;;;17.67;52.45;102767.56;4975906;28;20022;-61
2021/11/19 07:36:14;;;;;;;19.20;8.95;;;;;;;17.72;51.84;102776.19;4991894;28;20539;-62
2021/11/19 07:38:41;;;;;;;15.77;8.23;;;;;;;17.74;52.55;102779.63;4975784;28;20053;-62
2021/11/19 07:41:08;;;;;;;18.48;8.98;;;;;;;17.75;52.08;102777.78;4977071;28;20106;-61
2021/11/19 07:43:38;;;;;;;17.50;8.52;;;;;;;17.73;52.63;102777.91;4976884;28;20054;-61
2021/11/19 07:46:03;;;;;;;15.43;8.23;;;;;;;17.73;52.92;102777.91;4976066;28;20026;-62
2021/11/19 07:48:32;;;;;;;13.73;7.43;;;;;;;17.75;52.32;102786.78;4976643;28;20027;-62
2021/11/19 07:51:01;;;;;;;18.48;8.52;;;;;;;17.75;51.80;102777.78;4975598;28;20031;-62
2021/11/19 07:53:27;;;;;;;16.13;7.78;;;;;;;17.79;51.67;102799.06;4975368;28;20027;-62
2021/11/19 07:55:54;;;;;;;21.90;9.02;;;;;;;17.80;52.48;102792.69;4976860;28;20504;-62
2021/11/19 07:58:21;;;;;;;16.10;8.73;;;;;;;17.80;52.71;102798.09;4991331;28;20037;-62
2021/11/19 08:00:47;;;;;;;15.25;8.68;;;;;;;17.79;52.83;102796.38;4990998;28;20046;-62
2021/11/19 08:03:13;;;;;;;18.20;8.90;;;;;;;17.79;52.36;102785.53;4991113;28;20026;-61
2021/11/19 08:05:42;;;;;;;15.73;8.57;;;;;;;17.74;51.90;102787.75;4976090;28;20034;-62
2021/11/19 08:08:08;;;;;;;19.08;8.68;;;;;;;17.75;51.94;102786.78;4991144;28;20508;-62
2021/11/19 08:10:33;;;;;;;22.80;7.82;;;;;;;17.75;52.11;102792.22;4975957;28;20026;-62
2021/11/19 08:12:59;;;;;;;15.13;7.57;;;;;;;17.76;52.19;102799.31;4975886;28;20062;-62
2021/11/19 08:15:26;;;;;;;18.50;7.35;;;;;;;17.72;52.78;102787.03;4974636;28;20041;-62
2021/11/19 08:17:53;;;;;;;15.80;7.63;;;;;;;17.76;52.64;102799.31;4990814;28;20058;-62
2021/11/19 08:20:23;;;;;;;14.70;7.55;;;;;;;17.73;52.89;102794.16;4974317;28;20480;-62
2021/11/19 08:22:49;;;;;;;17.42;8.55;;;;;;;17.78;52.39;102799.22;4975830;28;20062;-62
2021/11/19 08:25:15;;;;;;;14.18;7.30;;;;;;;17.78;52.33;102797.34;4975742;28;20030;-62
2021/11/19 08:27:52;;;;;;;13.45;7.43;;;;;;;17.75;52.26;102786.78;4974598;28;20034;-62
2021/11/19 08:30:27;;;;;;;12.45;6.47;;;;;;;17.81;51.63;102794.38;4990840;28;20026;-62
2021/11/19 08:32:52;;;;;;;15.18;7.75;;;;;;;17.84;52.68;102790.53;4974574;28;20471;-61
2021/11/19 08:35:18;;;;;;;18.45;8.35;;;;;;;17.86;52.33;102796.72;4975893;28;20089;-62
2021/11/19 08:37:43;;;;;;;15.05;8.07;;;;;;;17.83;53.03;102792.44;4975473;28;20034;-62
2021/11/19 08:40:12;;;;;;;14.60;8.48;;;;;;;17.87;52.88;102791.16;4975335;28;20113;-62
2021/11/19 08:42:38;;;;;;;14.55;7.35;;;;;;;17.90;52.38;102790.91;4974600;28;20034;-62
2021/11/19 08:45:04;;;;;;;13.68;8.18;;;;;;;17.91;52.58;102795.34;4975316;28;20396;-62
2021/11/19 08:47:31;;;;;;;14.38;7.03;;;;;;;17.90;52.07;102796.31;4975721;28;20483;-65
2021/11/19 08:49:58;;;;;;;15.57;7.63;;;;;;;17.92;51.72;102786.19;4975346;28;20105;-62
2021/11/19 08:52:23;;;;;;;14.27;7.38;;;;;;;17.89;52.25;102782.91;4975353;28;20035;-62
2021/11/19 08:54:50;;;;;;;14.30;7.03;;;;;;;17.91;51.87;102792.63;4990352;28;20027;-62
2021/11/19 08:57:23;;;;;;;16.08;6.90;;;;;;;17.90;52.42;102790.91;4975442;28;20165;-62
2021/11/19 08:59:49;;;;;;;12.85;7.47;;;;;;;17.92;52.92;102793.50;4973925;28;20408;-62
2021/11/19 09:02:18;;;;;;;14.48;7.53;;;;;;;17.93;52.78;102796.06;4975476;28;20105;-62
2021/11/19 09:04:44;;;;;;;15.45;6.60;;;;;;;17.94;52.78;102792.38;4975753;28;20391;-60
2021/11/19 09:07:09;;;;;;;13.88;7.00;;;;;;;17.91;52.51;102789.94;4995081;28;20113;-61
2021/11/19 09:09:34;;;;;;;13.45;6.97;;;;;;;17.93;52.18;102792.50;4993125;28;20033;-60
2021/11/19 09:12:00;;;;;;;13.00;6.93;;;;;;;18.00;53.14;102797.28;4993610;28;20398;-61
2021/11/19 09:14:25;;;;;;;13.90;7.80;;;;;;;18.01;53.20;102799.00;4994359;28;20109;-61
2021/11/19 09:17:14;;;;;;;12.15;7.25;;;;;;;18.02;53.15;102800.72;4993359;28;20027;-60
2021/11/19 09:19:48;;;;;;;13.38;7.30;;;;;;;18.05;52.52;102807.75;5008650;28;20021;-60
2021/11/19 09:22:17;;;;;;;15.23;7.07;;;;;;;18.08;53.27;102809.34;5029268;28;20533;-60
2021/11/19 09:24:42;;;;;;;13.50;6.10;;;;;;;18.09;52.42;102805.66;5013747;28;20032;-60
2021/11/19 09:27:11;;;;;;;14.98;6.88;;;;;;;18.09;51.86;102811.06;4996138;28;20120;-60
2021/11/19 09:29:49;;;;;;;14.10;6.75;;;;;;;18.13;52.24;102820.66;5029383;28;20108;-60
2021/11/19 09:32:17;;;;;;;14.45;6.80;;;;;;;18.14;51.84;102809.69;5014728;28;20022;-60
2021/11/19 09:34:47;;;;;;;15.98;7.53;;;;;;;18.18;52.60;102804.84;5014110;28;20097;-60
2021/11/19 09:37:14;;;;;;;13.00;6.65;;;;;;;18.19;52.37;102812.00;5014597;28;20028;-61
2021/11/19 09:39:40;;;;;;;17.55;7.90;;;;;;;18.19;52.20;102817.44;5012612;28;20386;-60
2021/11/19 09:42:44;;;;;;;12.40;6.55;;;;;;;18.25;52.76;102815.06;4998591;28;20108;-61
2021/11/19 09:45:09;;;;;;;;;;;;;;;18.26;51.58;102818.63;5014078;28;20101;-59
2021/11/19 09:47:35;;;;;;;14.65;7.90;;;;;;;18.29;51.40;102826.50;4998470;28;19956;-60
2021/11/19 09:50:22;;;;;;;15.38;7.03;;;;;;;18.28;51.83;102824.78;4997078;28;20487;-60
2021/11/19 09:53:09;;;;;;;15.70;7.57;;;;;;;18.25;51.66;102835.91;4997051;28;20026;-60
2021/11/19 09:56:11;;;;;;;17.70;7.88;;;;;;;18.23;52.25;102833.31;4997912;28;20026;-60
2021/11/19 09:59:11;;;;;;;11.30;6.43;;;;;;;18.22;51.95;102836.16;4997987;28;20453;-60
2021/11/19 10:01:52;;;;;;;15.82;8.35;;;;;;;18.24;52.03;102842.31;4985985;28;20038;-60
2021/11/19 10:04:36;;;;;;;15.20;7.10;;;;;;;18.26;51.82;102835.75;4996930;28;20026;-60
2021/11/19 10:07:16;;;;;;;15.90;8.02;;;;;;;18.26;52.49;102841.19;4997948;28;20454;-60
2021/11/19 10:09:59;;;;;;;16.48;8.07;;;;;;;18.25;52.56;102819.63;4998124;28;20026;-60
2021/11/19 10:12:28;;;;;;;22.52;9.75;;;;;;;18.28;52.51;102827.50;5013004;28;20105;-60
2021/11/19 10:14:59;;;;;;;17.08;8.45;;;;;;;18.34;52.42;102832.41;4996623;28;20030;-60
2021/11/19 10:17:40;;;;;;;14.20;7.70;;;;;;;18.37;51.69;102824.03;5012914;28;20054;-60
2021/11/19 10:20:20;;;;;;;18.35;8.23;;;;;;;18.33;52.62;102819.81;4998011;28;20468;-60
2021/11/19 10:23:07;;;;;;;16.48;8.20;;;;;;;18.36;51.92;102823.16;4997792;28;20419;-60
2021/11/19 10:25:51;;;;;;;16.83;8.13;;;;;;;18.39;51.90;102816.59;5012747;28;20026;-60
2021/11/19 10:28:23;;;;;;;14.95;7.63;;;;;;;18.37;52.71;102815.88;4997697;28;20026;-59
2021/11/19 10:30:51;;;;;;;16.02;7.68;;;;;;;18.38;52.14;102825.72;4997938;28;20033;-60
2021/11/19 10:33:24;;;;;;;14.73;8.02;;;;;;;18.41;53.04;102814.59;4996784;28;20479;-59
2021/11/19 10:35:50;;;;;;;14.50;7.85;;;;;;;18.44;52.42;102823.34;4997554;28;20157;-59
2021/11/19 10:38:41;;;;;;;18.70;8.55;;;;;;;18.47;52.80;102816.78;4997454;28;20022;-60
2021/11/19 10:41:44;;;;;;;19.38;6.95;;;;;;;18.46;51.65;102818.66;4997558;28;20034;-60
2021/11/19 10:44:37;;;;;;;14.20;7.55;;;;;;;18.47;52.13;102806.81;4995953;28;20030;-60
2021/11/19 10:47:22;;;;;;;;;;;;;;;18.49;52.05;102818.41;4980061;28;20030;-60
2021/11/19 10:50:06;;;;;;;15.90;8.07;;;;;;;18.52;51.98;102814.56;4997691;28;20370;-60
2021/11/19 10:52:40;;;;;;;15.48;7.72;;;;;;;18.55;51.61;102808.88;4997079;28;20026;-59
2021/11/19 10:55:43;;;;;;;15.38;7.95;;;;;;;18.59;51.76;102805.75;4997770;28;20026;-60
2021/11/19 10:58:41;;;;;;;13.85;6.72;;;;;;;18.63;51.71;102806.38;4997533;28;20030;-59
2021/11/19 11:01:18;;;;;;;19.48;8.98;;;;;;;18.63;51.87;102800.94;4996142;28;20448;-60
2021/11/19 11:03:52;;;;;;;15.82;7.60;;;;;;;18.69;52.45;102808.56;4997292;28;20081;-60
2021/11/19 11:06:18;;;;;;;16.45;8.27;;;;;;;18.70;52.45;102804.00;4997162;28;20505;-60
2021/11/19 11:08:46;;;;;;;17.35;8.40;;;;;;;18.71;51.87;102803.84;4996907;28;20022;-60
2021/11/19 11:11:29;;;;;;;19.38;8.02;;;;;;;18.75;51.79;102805.31;4997192;28;20057;-60
2021/11/19 11:13:55;;;;;;;14.60;7.97;;;;;;;18.76;52.29;102788.00;4995730;28;20495;-60
2021/11/19 11:16:20;;;;;;;15.85;8.63;;;;;;;18.80;52.52;102786.75;4996641;28;20074;-60
2021/11/19 11:19:00;;;;;;;16.38;8.50;;;;;;;18.78;52.27;102788.75;4996523;28;20050;-60
2021/11/19 11:21:38;;;;;;;20.42;7.97;;;;;;;18.85;51.90;102789.91;4996813;28;20085;-60
2021/11/19 11:24:10;;;;;;;14.82;7.28;;;;;;;18.90;51.96;102798.50;4995277;28;20022;-60
2021/11/19 11:26:46;;;;;;;16.67;8.23;;;;;;;18.95;52.27;102796.28;4995381;28;20038;-60
2021/11/19 11:29:18;;;;;;;17.80;8.60;;;;;;;18.95;52.33;102793.56;5011550;28;20085;-60
2021/11/19 11:31:50;;;;;;;16.35;7.93;;;;;;;18.97;52.85;102788.84;4996951;28;20121;-59
2021/11/19 11:34:20;;;;;;;15.63;8.52;;;;;;;18.97;51.91;102788.84;4997537;28;20439;-60
2021/11/19 11:36:55;;;;;;;16.13;7.85;;;;;;;19.01;52.18;102793.00;4996664;28;20557;-60
2021/11/19 11:39:33;;;;;;;18.95;9.25;;;;;;;19.02;51.71;102775.72;4996265;28;20035;-60